createdAt,value
2018-09-29T00:01:46.055Z,99.90
2018-09-29T00:04:15.186Z,99.90
2018-09-29T00:06:44.333Z,99.90
2018-09-29T00:09:13.430Z,99.90
2018-09-29T00:11:42.558Z,99.90
2018-09-29T00:14:12.223Z,99.90
2018-09-29T00:16:41.450Z,99.90
2018-09-29T00:19:10.495Z,99.90
2018-09-29T00:21:39.625Z,99.90
2018-09-29T00:24:08.750Z,99.90
2018-09-29T00:26:37.869Z,99.90
2018-09-29T00:29:07.013Z,99.90
2018-09-29T00:31:36.173Z,99.90
2018-09-29T00:34:05.397Z,99.90
2018-09-29T00:36:34.558Z,99.90
2018-09-29T00:39:04.350Z,99.90
2018-09-29T00:41:33.500Z,99.90
2018-09-29T00:44:02.603Z,99.90
2018-09-29T00:46:31.838Z,99.90
2018-09-29T00:49:00.931Z,99.90
2018-09-29T00:51:30.062Z,99.90
2018-09-29T00:53:59.138Z,99.90
2018-09-29T00:56:28.254Z,99.90
2018-09-29T00:58:57.367Z,99.90
2018-09-29T01:01:33.148Z,99.90
2018-09-29T01:04:02.263Z,99.90
2018-09-29T01:06:31.377Z,99.90
2018-09-29T01:09:00.457Z,99.90
2018-09-29T01:11:29.694Z,99.90
2018-09-29T01:13:58.787Z,99.90
2018-09-29T01:16:27.915Z,99.90
2018-09-29T01:18:57.046Z,99.90
2018-09-29T01:21:26.205Z,99.90
2018-09-29T01:23:55.285Z,99.90
2018-09-29T01:26:24.886Z,99.90
2018-09-29T01:28:53.987Z,99.90
2018-09-29T01:31:23.123Z,99.90
2018-09-29T01:33:52.196Z,99.90
2018-09-29T01:36:21.378Z,99.90
2018-09-29T01:38:50.510Z,99.90
2018-09-29T01:41:19.877Z,99.90
2018-09-29T01:43:48.985Z,99.90
2018-09-29T01:46:18.104Z,99.90
2018-09-29T01:48:47.234Z,99.90
2018-09-29T01:51:16.419Z,99.90
2018-09-29T01:53:45.531Z,99.90
2018-09-29T01:56:14.622Z,99.90
2018-09-29T01:58:43.731Z,99.90
2018-09-29T02:01:12.811Z,99.90
2018-09-29T02:03:41.911Z,99.90
2018-09-29T02:06:11.021Z,99.90
2018-09-29T02:08:40.162Z,99.90
2018-09-29T02:11:09.283Z,99.90
2018-09-29T02:13:38.911Z,99.90
2018-09-29T02:16:08.005Z,99.90
2018-09-29T02:18:37.133Z,99.90
2018-09-29T02:21:06.538Z,99.90
2018-09-29T02:23:35.750Z,99.90
2018-09-29T02:26:04.830Z,99.90
2018-09-29T02:28:33.955Z,99.90
2018-09-29T02:31:03.102Z,99.90
2018-09-29T02:33:32.287Z,99.90
2018-09-29T02:36:01.390Z,99.90
2018-09-29T02:38:30.474Z,99.90
2018-09-29T02:40:59.584Z,99.90
2018-09-29T02:43:28.680Z,99.90
2018-09-29T02:45:57.758Z,99.90
2018-09-29T02:48:26.851Z,99.90
2018-09-29T02:50:55.932Z,99.90
2018-09-29T02:53:25.047Z,99.90
2018-09-29T02:55:54.218Z,99.90
2018-09-29T02:58:23.330Z,99.90
2018-09-29T03:00:52.463Z,99.90
2018-09-29T03:03:21.564Z,99.90
2018-09-29T03:05:50.643Z,99.90
2018-09-29T03:08:19.726Z,99.90
2018-09-29T03:10:49.052Z,99.90
2018-09-29T03:13:18.167Z,99.90
2018-09-29T03:15:47.234Z,99.90
2018-09-29T03:18:16.332Z,99.90
2018-09-29T03:20:45.404Z,99.90
2018-09-29T03:23:14.505Z,99.90
2018-09-29T03:25:43.583Z,99.90
2018-09-29T03:28:12.672Z,99.90
2018-09-29T03:30:41.750Z,99.90
2018-09-29T03:33:10.841Z,99.90
2018-09-29T03:35:39.934Z,99.90
2018-09-29T03:38:09.020Z,99.90
2018-09-29T03:40:38.213Z,99.90
2018-09-29T03:43:07.309Z,99.90
2018-09-29T03:45:36.416Z,99.90
2018-09-29T03:48:05.514Z,99.90
2018-09-29T03:50:34.684Z,99.90
2018-09-29T03:53:03.788Z,99.90
2018-09-29T03:55:32.903Z,99.90
2018-09-29T03:58:01.992Z,99.90
2018-09-29T04:00:31.081Z,99.90
2018-09-29T04:03:00.154Z,99.90
2018-09-29T04:05:29.258Z,99.90
2018-09-29T04:07:58.489Z,99.90
2018-09-29T04:10:27.704Z,99.90
2018-09-29T04:12:56.794Z,99.90
2018-09-29T04:15:26.002Z,99.90
2018-09-29T04:17:55.096Z,99.90
2018-09-29T04:20:24.280Z,99.90
2018-09-29T04:22:53.363Z,99.90
2018-09-29T04:25:22.458Z,99.90
2018-09-29T04:27:51.554Z,99.90
2018-09-29T04:30:20.655Z,99.90
2018-09-29T04:32:49.744Z,99.90
2018-09-29T04:35:18.855Z,99.90
2018-09-29T04:37:47.946Z,99.90
2018-09-29T04:40:17.118Z,99.90
2018-09-29T04:42:46.198Z,99.90
2018-09-29T04:45:15.290Z,99.90
2018-09-29T04:47:44.368Z,99.30
2018-09-29T04:50:13.619Z,98.50
2018-09-29T04:52:42.705Z,99.80
2018-09-29T04:55:11.810Z,99.90
2018-09-29T04:57:40.903Z,99.90
2018-09-29T05:00:10.140Z,99.90
2018-09-29T05:02:39.212Z,99.90
2018-09-29T05:05:08.315Z,99.90
2018-09-29T05:07:37.433Z,99.90
2018-09-29T05:10:06.734Z,99.90
2018-09-29T05:12:35.848Z,99.90
2018-09-29T05:15:05.237Z,99.90
2018-09-29T05:17:34.522Z,99.90
2018-09-29T05:20:03.717Z,99.90
2018-09-29T05:22:32.785Z,99.90
2018-09-29T05:25:01.883Z,99.90
2018-09-29T05:27:31.046Z,99.90
2018-09-29T05:30:00.260Z,99.90
2018-09-29T05:32:29.359Z,99.90
2018-09-29T05:34:58.446Z,99.90
2018-09-29T05:37:27.548Z,99.90
2018-09-29T05:39:56.721Z,99.90
2018-09-29T05:42:25.888Z,99.90
2018-09-29T05:44:54.978Z,99.90
2018-09-29T05:47:24.134Z,99.90
2018-09-29T05:49:53.225Z,99.90
2018-09-29T05:52:22.327Z,99.90
2018-09-29T05:54:51.410Z,99.90
2018-09-29T05:57:20.514Z,99.90
2018-09-29T05:59:49.587Z,99.90
2018-09-29T06:02:18.682Z,99.90
2018-09-29T06:04:47.768Z,99.90
2018-09-29T06:07:16.933Z,99.90
2018-09-29T06:09:46.084Z,99.90
2018-09-29T06:12:15.201Z,99.90
2018-09-29T06:14:44.269Z,99.90
2018-09-29T06:17:13.383Z,99.90
2018-09-29T06:19:42.556Z,99.90
2018-09-29T06:22:11.647Z,99.90
2018-09-29T06:24:40.778Z,99.90
2018-09-29T06:27:10.027Z,99.90
2018-09-29T06:29:39.147Z,99.90
2018-09-29T06:32:08.262Z,99.90
2018-09-29T06:34:37.342Z,99.90
2018-09-29T06:37:06.488Z,99.90
2018-09-29T06:39:35.553Z,99.90
2018-09-29T06:42:04.746Z,99.90
2018-09-29T06:44:33.854Z,99.90
2018-09-29T06:47:02.959Z,99.90
2018-09-29T06:49:32.119Z,99.90
2018-09-29T06:52:04.250Z,99.90
2018-09-29T06:54:33.426Z,99.90
2018-09-29T06:57:02.493Z,99.60
2018-09-29T06:59:31.646Z,99.00
2018-09-29T07:02:00.784Z,98.30
2018-09-29T07:04:29.886Z,97.10
2018-09-29T07:06:58.975Z,97.40
2018-09-29T07:09:28.086Z,96.30
2018-09-29T07:11:57.162Z,97.20
2018-09-29T07:14:26.445Z,96.50
2018-09-29T07:16:55.716Z,94.90
2018-09-29T07:19:24.877Z,95.40
2018-09-29T07:21:54.084Z,95.60
2018-09-29T07:24:23.099Z,93.00
2018-09-29T07:26:52.167Z,91.90
2018-09-29T07:29:21.355Z,90.60
2018-09-29T07:31:50.434Z,87.00
2018-09-29T07:34:19.553Z,90.00
2018-09-29T07:36:48.625Z,88.60
2018-09-29T07:39:17.836Z,85.20
2018-09-29T07:41:46.959Z,83.20
2018-09-29T07:44:16.067Z,80.60
2018-09-29T07:46:45.154Z,80.50
2018-09-29T07:49:14.335Z,82.70
2018-09-29T07:51:43.482Z,81.00
2018-09-29T07:54:12.595Z,78.30
2018-09-29T07:56:41.695Z,78.20
2018-09-29T07:59:10.801Z,78.60
2018-09-29T08:01:39.877Z,76.20
2018-09-29T08:04:09.006Z,75.30
2018-09-29T08:06:38.124Z,76.10
2018-09-29T08:09:07.970Z,75.60
2018-09-29T08:11:37.163Z,74.00
2018-09-29T08:14:06.275Z,72.30
2018-09-29T08:16:35.451Z,72.20
2018-09-29T08:19:04.598Z,70.60
2018-09-29T08:21:33.695Z,69.90
2018-09-29T08:24:02.783Z,70.20
2018-09-29T08:26:31.873Z,72.30
2018-09-29T08:29:00.976Z,69.90
2018-09-29T08:31:30.079Z,70.40
2018-09-29T08:33:59.187Z,71.20
2018-09-29T08:36:28.291Z,71.00
2018-09-29T08:38:57.387Z,67.90
2018-09-29T08:41:26.519Z,66.80
2018-09-29T08:43:55.636Z,68.30
2018-09-29T08:46:24.758Z,67.60
2018-09-29T08:48:53.863Z,67.10
2018-09-29T08:51:22.966Z,66.00
2018-09-29T08:53:52.055Z,65.60
2018-09-29T08:56:21.146Z,66.10
2018-09-29T08:58:50.266Z,62.10
2018-09-29T09:01:19.369Z,62.70
2018-09-29T09:03:48.499Z,61.00
2018-09-29T09:06:17.586Z,61.50
2018-09-29T09:08:46.688Z,59.60
2018-09-29T09:11:15.790Z,60.50
2018-09-29T09:13:44.891Z,61.20
2018-09-29T09:16:14.132Z,60.60
2018-09-29T09:18:43.289Z,59.30
2018-09-29T09:21:12.428Z,60.20
2018-09-29T09:23:41.575Z,62.10
2018-09-29T09:26:10.693Z,62.70
2018-09-29T09:28:39.956Z,62.10
2018-09-29T09:31:09.229Z,61.50
2018-09-29T09:33:38.330Z,60.80
2018-09-29T09:36:07.891Z,59.10
2018-09-29T09:38:37.036Z,60.10
2018-09-29T09:41:06.398Z,59.40
2018-09-29T09:43:35.557Z,60.20
2018-09-29T09:46:04.801Z,59.80
2018-09-29T09:48:33.887Z,59.20
2018-09-29T09:51:02.999Z,59.80
2018-09-29T09:53:32.251Z,58.60
2018-09-29T09:56:01.425Z,59.30
2018-09-29T09:58:30.695Z,61.70
2018-09-29T10:01:05.270Z,59.30
2018-09-29T10:03:34.589Z,59.10
2018-09-29T10:06:03.770Z,60.00
2018-09-29T10:08:33.003Z,60.30
2018-09-29T10:11:02.116Z,60.10
2018-09-29T10:13:31.239Z,58.80
2018-09-29T10:16:00.347Z,58.50
2018-09-29T10:18:29.490Z,58.70
2018-09-29T10:20:58.630Z,56.80
2018-09-29T10:23:27.784Z,58.10
2018-09-29T10:25:56.906Z,57.70
2018-09-29T10:28:26.024Z,56.80
2018-09-29T10:30:55.140Z,57.50
2018-09-29T10:33:24.234Z,56.20
2018-09-29T10:35:53.355Z,54.80
2018-09-29T10:38:22.436Z,55.50
2018-09-29T10:40:51.566Z,54.50
2018-09-29T10:43:20.667Z,53.60
2018-09-29T10:45:49.769Z,54.10
2018-09-29T10:48:18.880Z,54.80
2018-09-29T10:50:47.991Z,53.40
2018-09-29T10:53:17.082Z,53.60
2018-09-29T10:55:46.219Z,53.70
2018-09-29T10:58:15.442Z,52.60
2018-09-29T11:00:44.573Z,53.10
2018-09-29T11:03:13.685Z,53.20
2018-09-29T11:05:42.821Z,53.00
2018-09-29T11:08:11.969Z,53.40
2018-09-29T11:10:41.134Z,52.40
2018-09-29T11:13:10.264Z,52.90
2018-09-29T11:15:39.380Z,51.90
2018-09-29T11:18:08.494Z,51.90
2018-09-29T11:20:37.626Z,52.30
2018-09-29T11:23:06.852Z,52.80
2018-09-29T11:25:35.938Z,51.80
2018-09-29T11:28:05.187Z,51.00
2018-09-29T11:30:34.246Z,52.40
2018-09-29T11:33:03.393Z,51.80
2018-09-29T11:35:32.494Z,52.10
2018-09-29T11:38:01.699Z,52.70
2018-09-29T11:40:30.933Z,51.70
2018-09-29T11:43:00.050Z,52.90
2018-09-29T11:45:29.129Z,54.40
2018-09-29T11:47:58.237Z,54.30
2018-09-29T11:50:27.321Z,53.30
2018-09-29T11:52:56.431Z,53.30
2018-09-29T11:55:25.715Z,52.70
2018-09-29T11:57:54.854Z,52.50
2018-09-29T12:00:23.978Z,51.60
2018-09-29T12:02:53.318Z,50.20
2018-09-29T12:05:22.439Z,52.10
2018-09-29T12:07:51.719Z,51.60
2018-09-29T12:10:20.808Z,50.80
2018-09-29T12:12:49.983Z,52.00
2018-09-29T12:15:19.068Z,51.60
2018-09-29T12:17:48.193Z,50.90
2018-09-29T12:20:17.270Z,51.00
2018-09-29T12:22:46.373Z,50.00
2018-09-29T12:25:15.463Z,50.60
2018-09-29T12:27:44.790Z,51.80
2018-09-29T12:30:13.885Z,51.30
2018-09-29T12:32:43.039Z,52.20
2018-09-29T12:35:12.906Z,50.80
2018-09-29T12:37:42.102Z,49.10
2018-09-29T12:40:11.238Z,50.00
2018-09-29T12:42:40.462Z,50.90
2018-09-29T12:45:09.544Z,52.80
2018-09-29T12:47:38.730Z,53.90
2018-09-29T12:50:07.856Z,52.80
2018-09-29T12:52:36.981Z,52.90
2018-09-29T12:55:06.105Z,54.90
2018-09-29T12:57:35.414Z,54.20
2018-09-29T13:00:05.213Z,54.50
2018-09-29T13:02:34.292Z,50.70
2018-09-29T13:05:03.616Z,50.90
2018-09-29T13:07:32.699Z,50.60
2018-09-29T13:10:01.819Z,51.30
2018-09-29T13:12:30.957Z,53.90
2018-09-29T13:15:00.157Z,54.40
2018-09-29T13:17:29.294Z,51.80
2018-09-29T13:19:58.397Z,52.20
2018-09-29T13:22:27.508Z,55.40
2018-09-29T13:24:56.601Z,53.30
2018-09-29T13:27:25.706Z,52.90
2018-09-29T13:29:54.815Z,53.50
2018-09-29T13:32:24.027Z,53.50
2018-09-29T13:34:53.332Z,53.50
2018-09-29T13:37:22.436Z,53.30
2018-09-29T13:39:51.590Z,54.20
2018-09-29T13:42:20.719Z,54.10
2018-09-29T13:44:49.841Z,54.60
2018-09-29T13:47:18.918Z,56.40
2018-09-29T13:49:48.019Z,55.90
2018-09-29T13:52:17.124Z,55.20
2018-09-29T13:54:46.270Z,55.70
2018-09-29T13:57:15.439Z,55.90
2018-09-29T13:59:44.547Z,55.70
2018-09-29T14:02:13.678Z,55.90
2018-09-29T14:04:42.791Z,55.00
2018-09-29T14:07:11.986Z,55.20
2018-09-29T14:09:41.102Z,55.90
2018-09-29T14:12:10.382Z,57.00
2018-09-29T14:14:39.496Z,56.90
2018-09-29T14:17:09.304Z,56.20
2018-09-29T14:19:38.434Z,57.00
2018-09-29T14:22:07.526Z,58.40
2018-09-29T14:24:36.683Z,57.30
2018-09-29T14:27:05.857Z,57.70
2018-09-29T14:29:35.023Z,56.60
2018-09-29T14:32:04.124Z,56.40
2018-09-29T14:34:33.233Z,56.30
2018-09-29T14:37:02.417Z,56.60
2018-09-29T14:39:31.552Z,56.80
2018-09-29T14:42:00.742Z,56.30
2018-09-29T14:44:29.815Z,56.40
2018-09-29T14:46:58.992Z,56.80
2018-09-29T14:49:28.671Z,57.60
2018-09-29T14:51:57.770Z,58.90
2018-09-29T14:54:26.845Z,57.90
2018-09-29T14:56:55.968Z,58.80
2018-09-29T14:59:25.083Z,59.80
2018-09-29T15:01:54.188Z,60.60
2018-09-29T15:04:23.383Z,60.90
2018-09-29T15:06:52.483Z,61.60
2018-09-29T15:09:21.578Z,61.10
2018-09-29T15:11:50.690Z,60.80
2018-09-29T15:14:19.813Z,61.00
2018-09-29T15:16:48.988Z,62.00
2018-09-29T15:19:18.081Z,61.70
2018-09-29T15:21:47.189Z,62.20
2018-09-29T15:24:16.274Z,62.30
2018-09-29T15:26:45.434Z,62.60
2018-09-29T15:29:14.586Z,63.70
2018-09-29T15:31:43.662Z,63.80
2018-09-29T15:34:12.737Z,63.60
2018-09-29T15:36:41.835Z,64.70
2018-09-29T15:39:12.088Z,65.00
2018-09-29T15:41:41.513Z,64.90
2018-09-29T15:44:11.203Z,64.40
2018-09-29T15:46:41.029Z,65.70
2018-09-29T15:49:11.037Z,65.20
2018-09-29T15:51:40.790Z,65.50
2018-09-29T15:54:10.675Z,66.50
2018-09-29T15:56:40.709Z,67.30
2018-09-29T15:59:10.713Z,68.20
2018-09-29T16:01:40.621Z,70.10
2018-09-29T16:04:10.763Z,71.10
2018-09-29T16:06:40.776Z,70.90
2018-09-29T16:09:11.235Z,71.80
2018-09-29T16:11:41.317Z,74.10
2018-09-29T16:14:10.992Z,74.20
2018-09-29T16:16:40.900Z,73.80
2018-09-29T16:19:11.007Z,74.40
2018-09-29T16:21:40.151Z,74.40
2018-09-29T16:24:09.205Z,76.10
2018-09-29T16:26:38.419Z,76.40
2018-09-29T16:29:07.511Z,80.40
2018-09-29T16:31:36.826Z,77.80
2018-09-29T16:34:07.275Z,79.00
2018-09-29T16:36:36.637Z,79.40
2018-09-29T16:39:10.326Z,78.60
2018-09-29T16:41:40.384Z,80.10
2018-09-29T16:44:10.275Z,79.80
2018-09-29T16:46:40.711Z,81.70
2018-09-29T16:49:10.623Z,81.90
2018-09-29T16:51:40.531Z,81.60
2018-09-29T16:54:10.402Z,82.10
2018-09-29T16:56:40.250Z,83.80
2018-09-29T16:59:10.292Z,83.90
2018-09-29T17:01:40.056Z,84.00
2018-09-29T17:04:10.243Z,85.90
2018-09-29T17:06:40.142Z,87.50
2018-09-29T17:09:11.367Z,88.30
2018-09-29T17:11:41.164Z,87.70
2018-09-29T17:14:11.241Z,86.30
2018-09-29T17:16:40.955Z,88.10
2018-09-29T17:19:10.651Z,88.30
2018-09-29T17:21:39.737Z,89.90
2018-09-29T17:24:09.806Z,89.80
2018-09-29T17:26:39.042Z,89.90
2018-09-29T17:29:08.150Z,89.30
2018-09-29T17:31:37.269Z,90.00
2018-09-29T17:34:06.403Z,90.40
2018-09-29T17:36:35.494Z,90.50
2018-09-29T17:39:07.661Z,90.40
2018-09-29T17:41:36.783Z,90.90
2018-09-29T17:44:06.159Z,91.20
2018-09-29T17:46:36.096Z,91.10
2018-09-29T17:49:06.089Z,92.10
2018-09-29T17:51:36.246Z,92.80
2018-09-29T17:54:05.391Z,91.50
2018-09-29T17:56:34.479Z,91.90
2018-09-29T17:59:03.680Z,92.00
2018-09-29T18:01:32.696Z,91.60
2018-09-29T18:04:02.087Z,91.70
2018-09-29T18:06:31.175Z,91.50
2018-09-29T18:09:00.305Z,91.60
2018-09-29T18:11:29.886Z,92.10
2018-09-29T18:13:58.994Z,92.00
2018-09-29T18:16:28.571Z,92.50
2018-09-29T18:18:57.673Z,92.80
2018-09-29T18:21:26.773Z,93.10
2018-09-29T18:23:56.233Z,93.00
2018-09-29T18:26:25.473Z,93.00
2018-09-29T18:28:54.585Z,92.90
2018-09-29T18:31:23.782Z,93.10
2018-09-29T18:33:52.906Z,93.90
2018-09-29T18:36:22.655Z,93.80
2018-09-29T18:38:51.791Z,93.30
2018-09-29T18:41:21.637Z,93.80
2018-09-29T18:43:50.746Z,93.80
2018-09-29T18:46:20.599Z,94.30
2018-09-29T18:48:49.832Z,93.60
2018-09-29T18:51:18.858Z,94.00
2018-09-29T18:53:47.957Z,94.60
2018-09-29T18:56:17.134Z,94.40
2018-09-29T18:58:46.262Z,94.30
2018-09-29T19:01:15.373Z,94.90
2018-09-29T19:03:44.579Z,95.10
2018-09-29T19:06:14.277Z,96.30
2018-09-29T19:08:43.410Z,96.40
2018-09-29T19:11:12.530Z,95.80
2018-09-29T19:13:41.619Z,95.30
2018-09-29T19:16:10.736Z,95.30
2018-09-29T19:18:39.901Z,96.50
2018-09-29T19:21:09.322Z,98.70
2018-09-29T19:23:38.654Z,97.70
2018-09-29T19:26:08.510Z,96.30
2018-09-29T19:28:37.878Z,95.60
2018-09-29T19:31:07.508Z,96.10
2018-09-29T19:33:36.739Z,95.50
2018-09-29T19:36:06.256Z,95.20
2018-09-29T19:38:36.410Z,95.40
2018-09-29T19:41:05.642Z,96.30
2018-09-29T19:43:34.820Z,97.70
2018-09-29T19:46:04.267Z,96.70
2018-09-29T19:48:33.619Z,95.40
2018-09-29T19:51:02.844Z,96.10
2018-09-29T19:53:32.025Z,96.20
2018-09-29T19:56:01.205Z,95.40
2018-09-29T19:58:30.397Z,95.50
2018-09-29T20:00:59.620Z,95.00
2018-09-29T20:03:28.832Z,95.20
2018-09-29T20:05:58.289Z,95.30
2018-09-29T20:08:27.622Z,96.00
2018-09-29T20:10:57.634Z,95.70
2018-09-29T20:13:27.138Z,95.40
2018-09-29T20:15:56.661Z,96.30
2018-09-29T20:18:26.871Z,95.70
2018-09-29T20:20:56.588Z,96.10
2018-09-29T20:23:26.211Z,96.30
2018-09-29T20:25:55.943Z,97.00
2018-09-29T20:28:25.940Z,96.50
2018-09-29T20:30:55.924Z,96.60
2018-09-29T20:33:26.064Z,96.70
2018-09-29T20:35:56.547Z,96.00
2018-09-29T20:38:25.636Z,95.70
2018-09-29T20:40:54.951Z,95.40
2018-09-29T20:43:24.092Z,95.70
2018-09-29T20:45:53.222Z,95.50
2018-09-29T20:48:22.294Z,95.90
2018-09-29T20:50:52.555Z,96.30
2018-09-29T20:53:21.650Z,96.70
2018-09-29T20:55:50.944Z,96.00
2018-09-29T20:58:20.130Z,96.00
2018-09-29T21:00:49.279Z,96.10
2018-09-29T21:03:18.371Z,96.50
2018-09-29T21:05:47.584Z,97.20
2018-09-29T21:08:16.732Z,97.00
2018-09-29T21:10:46.143Z,97.10
2018-09-29T21:13:17.024Z,97.30
2018-09-29T21:15:49.645Z,97.80
2018-09-29T21:18:18.792Z,98.70
2018-09-29T21:20:48.446Z,99.10
2018-09-29T21:23:18.719Z,99.90
2018-09-29T21:25:47.840Z,99.90
2018-09-29T21:28:17.018Z,99.90
2018-09-29T21:30:46.106Z,99.90
2018-09-29T21:33:15.223Z,99.90
2018-09-29T21:35:45.203Z,99.90
2018-09-29T21:38:14.622Z,99.90
2018-09-29T21:40:43.819Z,99.90
2018-09-29T21:43:12.938Z,99.90
2018-09-29T21:45:42.084Z,99.90
2018-09-29T21:48:11.202Z,99.90
2018-09-29T21:50:40.324Z,99.90
2018-09-29T21:53:09.608Z,99.90
2018-09-29T21:55:38.741Z,99.90
2018-09-29T21:58:07.861Z,99.90
2018-09-29T22:00:43.603Z,99.90
2018-09-29T22:03:14.921Z,99.90
2018-09-29T22:05:44.541Z,99.90
2018-09-29T22:08:14.288Z,99.90
2018-09-29T22:10:43.959Z,99.90
2018-09-29T22:13:13.076Z,99.90
2018-09-29T22:15:42.186Z,99.90
2018-09-29T22:18:11.333Z,99.90
2018-09-29T22:20:40.443Z,99.90
2018-09-29T22:23:09.588Z,99.90
2018-09-29T22:25:38.810Z,99.90
2018-09-29T22:28:07.961Z,99.90
2018-09-29T22:30:37.116Z,99.90
2018-09-29T22:33:07.120Z,99.90
2018-09-29T22:35:36.234Z,99.90
2018-09-29T22:38:06.491Z,99.90
2018-09-29T22:40:35.602Z,99.90
2018-09-29T22:43:05.776Z,99.90
2018-09-29T22:45:34.873Z,99.90
2018-09-29T22:48:03.977Z,99.90
2018-09-29T22:50:33.204Z,99.90
2018-09-29T22:53:02.306Z,99.90
2018-09-29T22:55:32.100Z,99.90
2018-09-29T22:58:01.289Z,99.90
2018-09-29T23:00:30.395Z,99.90
2018-09-29T23:02:59.700Z,99.90
2018-09-29T23:05:28.816Z,99.90
2018-09-29T23:07:58.110Z,99.90
2018-09-29T23:10:27.357Z,99.90
2018-09-29T23:12:56.457Z,99.90
2018-09-29T23:15:25.836Z,99.90
2018-09-29T23:17:55.074Z,99.90
2018-09-29T23:20:24.590Z,99.90
2018-09-29T23:22:53.705Z,99.90
2018-09-29T23:25:22.919Z,99.90
2018-09-29T23:27:52.776Z,99.90
2018-09-29T23:30:21.920Z,99.90
2018-09-29T23:32:51.086Z,99.90
2018-09-29T23:35:20.198Z,99.90
2018-09-29T23:37:49.321Z,99.90
2018-09-29T23:40:18.918Z,99.90
2018-09-29T23:42:48.087Z,99.90
2018-09-29T23:45:17.155Z,99.90
2018-09-29T23:47:46.415Z,99.90
2018-09-29T23:50:15.921Z,99.90
2018-09-29T23:52:45.042Z,99.90
2018-09-29T23:55:14.357Z,99.90
2018-09-29T23:57:43.555Z,99.90
